Hauptseite
METAR-TAF:

METAR-TAF

Flughäfen :

Lahr, Deutschland

Flughafen Lahr

Breite: 48-22-09N, Länge: 007-49-40E, Höhe: 156 m

Beobachtung

Neuester Wetterbericht von vor 5 Stunden und 46 Minuten, um 18:50 UTC
Wind 7 kt aus Ost/Nordost
Temperatur 2°C
Luftfeuchtigkeit 55%
Luftdruck 1015 hPa
Sichtweite 10 km oder mehr
Durchbrochene Bewölkung in der Höhe von 3600 ft

METAR: EDTL 231850Z 07007KT 9999 BKN036 02/M06 Q1015

Zeit: 01:36 (00:36 UTC)

Prognose

Neuester Wetterbericht von vor 7 Stunden und 36 Minuten, um 17:00 UTC
Gültige Prognose vom 23 um 18 UTC bis 23 um 24 UTC
Wind 8 kt aus Nordost
Sichtweite 10 km oder mehr
Durchbrochene Bewölkung in der Höhe von 3500 ft

TAF: EDTL 231700Z 2318/2324 04008KT 9999 BKN035

Wetterbeobachtungen und Prognosen von mehr als 4000 Flughäfen (METAR und TAF Bericht).

Die verfügbaren Stationen werden durch gelbe und rote Markierungen auf der Karte dargestellt.

Führen Sie die Maus auf sie, um den Namen der Station zu sehen.

Darauf klicken, um die Beobachtung von Wetterbeobachtungen und Prognosen zu sehen.

Um die Karte zu ändern : klicken Sie auf den grünen Tasten mit einem schwarzen Kreuz Zum Vergrößern, auf den grünen Button mit einem Gedankenstrich zu verkleinern, oder auf die grünen Pfeile für benachbarte Karten.


METAR-TAF: